Time;durP1;ratioP1;P1;durP2;ratioP2;P2;SDS_P1;SDS_P2;PMS_P1;PMS_P2;Temp;Humidity;BMP_temperature;BMP_pressure;BME280_temperature;BME280_humidity;BME280_pressure;Samples;Min_cycle;Max_cycle;Signal;HPM_P1;HPM_P2
2022/04/05 00:03:03;;;;;;;;;21.00;18.50;;;24.04;97320.79;;;;117047;1193;25444;-42
2022/04/05 00:05:38;;;;;;;;;16.67;16.33;;;24.04;97320.91;;;;116988;1193;24940;-40
2022/04/05 00:08:08;;;;;;;;;16.33;16.33;;;24.01;97320.06;;;;117063;1192;25384;-41
2022/04/05 00:10:36;;;;;;;;;23.33;18.67;;;23.99;97315.40;;;;117059;1193;25599;-41
2022/04/05 00:13:10;;;;;;;;;18.33;16.67;;;23.96;97315.14;;;;117062;1191;24824;-42
2022/04/05 00:15:42;;;;;;;;;20.50;19.00;;;23.95;97310.77;;;;117052;1193;26459;-39
2022/04/05 00:18:13;;;;;;;;;18.67;16.33;;;23.96;97308.74;;;;117069;1193;24969;-39
2022/04/05 00:20:43;;;;;;;;;15.00;15.00;;;23.96;97301.71;;;;117076;1193;25375;-44
2022/04/05 00:23:14;;;;;;;;;18.67;14.67;;;23.96;97297.81;;;;117034;1193;24882;-41
2022/04/05 00:25:44;;;;;;;;;16.00;15.33;;;23.96;97295.52;;;;117096;1191;25265;-40
2022/04/05 00:28:12;;;;;;;;;17.50;14.00;;;23.97;97290.64;;;;117081;1193;24740;-38
2022/04/05 00:30:42;;;;;;;;;18.00;17.00;;;23.96;97290.38;;;;117092;1193;24932;-41
2022/04/05 00:33:11;;;;;;;;;17.00;16.33;;;23.95;97288.61;;;;117113;1191;24925;-44
2022/04/05 00:35:42;;;;;;;;;16.00;16.00;;;23.95;97284.85;;;;117089;1192;26211;-41
2022/04/05 00:38:14;;;;;;;;;18.67;18.00;;;23.95;97282.09;;;;116969;1192;25064;-39
2022/04/05 00:40:43;;;;;;;;;16.67;13.00;;;23.95;97281.36;;;;117064;1192;25815;-37
2022/04/05 00:43:13;;;;;;;;;16.67;15.33;;;23.95;97273.50;;;;117073;1193;25083;-40
2022/04/05 00:45:44;;;;;;;;;16.00;15.00;;;23.94;97271.55;;;;117048;1193;25040;-42
2022/04/05 00:48:19;;;;;;;;;10.00;8.00;;;23.94;97263.95;;;;117101;1193;25587;-41
2022/04/05 00:50:47;;;;;;;;;17.00;14.00;;;23.96;97264.75;;;;117063;1193;25014;-40
2022/04/05 00:53:24;;;;;;;;;18.00;15.00;;;23.96;97259.22;;;;116983;1193;25162;-38
2022/04/05 00:55:56;;;;;;;;;20.33;15.00;;;23.97;97262.75;;;;117029;1193;25251;-41
2022/04/05 00:58:28;;;;;;;;;18.00;17.00;;;23.99;97257.88;;;;117037;1192;24757;-42
2022/04/05 01:00:57;;;;;;;;;10.33;10.33;;;23.97;97258.72;;;;117057;1193;25232;-41
2022/04/05 01:03:29;;;;;;;;;21.00;17.50;;;23.96;97254.23;;;;117071;1192;24881;-41
2022/04/05 01:05:59;;;;;;;;;24.00;17.33;;;23.96;97252.95;;;;117098;1193;24928;-39
2022/04/05 01:08:30;;;;;;;;;17.00;14.67;;;23.96;97249.86;;;;117010;1193;25244;-41
2022/04/05 01:10:59;;;;;;;;;18.00;15.00;;;23.96;97245.58;;;;117052;1194;25801;-39
2022/04/05 01:13:31;;;;;;;;;13.67;13.67;;;23.95;97247.68;;;;117001;1193;25789;-40
2022/04/05 01:15:59;;;;;;;;;13.00;12.00;;;23.94;97242.86;;;;117076;1193;25138;-39
2022/04/05 01:18:27;;;;;;;;;17.00;15.00;;;23.94;97238.61;;;;117063;1193;25388;-39
2022/04/05 01:20:59;;;;;;;;;15.33;13.67;;;23.92;97238.18;;;;117070;1193;25572;-42
2022/04/05 01:23:27;;;;;;;;;16.00;12.67;;;23.92;97238.48;;;;117091;1193;24811;-40
2022/04/05 01:25:59;;;;;;;;;17.00;15.00;;;23.92;97232.63;;;;117057;1193;25190;-40
2022/04/05 01:28:26;;;;;;;;;16.67;14.33;;;23.92;97231.71;;;;117036;1193;25274;-41
2022/04/05 01:30:55;;;;;;;;;19.00;15.33;;;23.92;97229.91;;;;117061;1193;25337;-43
2022/04/05 01:33:25;;;;;;;;;17.00;17.00;;;23.91;97227.42;;;;117094;1193;25383;-42
2022/04/05 01:35:54;;;;;;;;;17.50;16.50;;;23.92;97224.55;;;;117126;1193;25538;-40
2022/04/05 01:38:23;;;;;;;;;17.67;15.67;;;23.92;97223.96;;;;117069;1193;25176;-40
2022/04/05 01:40:55;;;;;;;;;16.00;15.00;;;23.91;97222.02;;;;117079;1192;25264;-39
2022/04/05 01:43:25;;;;;;;;;17.67;15.33;;;23.92;97218.43;;;;117091;1191;24938;-38
2022/04/05 01:45:55;;;;;;;;;21.50;15.50;;;23.91;97217.88;;;;117043;1191;25452;-40
2022/04/05 01:48:24;;;;;;;;;14.00;14.00;;;23.91;97215.21;;;;117062;1191;25100;-42
2022/04/05 01:50:52;;;;;;;;;17.00;15.00;;;23.91;97208.80;;;;117051;1192;24829;-40
2022/04/05 01:53:23;;;;;;;;;16.00;16.00;;;23.90;97202.74;;;;117052;1193;25138;-44
2022/04/05 01:55:53;;;;;;;;;17.00;13.00;;;23.89;97205.42;;;;117051;1191;25139;-42
2022/04/05 01:58:24;;;;;;;;;18.00;15.00;;;23.90;97201.79;;;;117076;1193;24977;-42
2022/04/05 02:00:54;;;;;;;;;14.33;14.33;;;23.90;97195.45;;;;117086;1193;25777;-38
2022/04/05 02:03:25;;;;;;;;;15.67;12.67;;;23.91;97192.52;;;;117090;1193;25542;-40
2022/04/05 02:05:56;;;;;;;;;17.00;16.00;;;23.90;97192.46;;;;117062;1193;25390;-39
2022/04/05 02:08:24;;;;;;;;;16.33;14.67;;;23.90;97190.36;;;;117081;1193;25569;-38
2022/04/05 02:10:52;;;;;;;;;20.33;12.33;;;23.89;97186.58;;;;117085;1193;25584;-42
2022/04/05 02:13:21;;;;;;;;;12.50;12.50;;;23.87;97188.69;;;;117071;1193;24994;-42
2022/04/05 02:15:53;;;;;;;;;16.00;12.67;;;23.87;97190.91;;;;117075;1193;25330;-42
2022/04/05 02:18:22;;;;;;;;;14.50;14.50;;;23.89;97188.52;;;;117103;1192;25110;-38
2022/04/05 02:20:54;;;;;;;;;14.33;13.00;;;23.89;97185.91;;;;117095;1193;25456;-44
2022/04/05 02:23:24;;;;;;;;;14.00;13.67;;;23.91;97188.56;;;;117105;1192;25036;-42
2022/04/05 02:25:55;;;;;;;;;15.00;14.50;;;23.91;97187.33;;;;117087;1192;24763;-37
2022/04/05 02:28:26;;;;;;;;;13.50;13.50;;;23.91;97185.34;;;;117007;1193;25371;-40
2022/04/05 02:30:56;;;;;;;;;13.67;12.67;;;23.90;97180.48;;;;117071;1192;25318;-37
2022/04/05 02:33:27;;;;;;;;;17.00;15.00;;;23.92;97176.60;;;;117079;1193;24965;-42
2022/04/05 02:35:59;;;;;;;;;13.00;13.00;;;23.91;97175.28;;;;117087;1191;24717;-39
2022/04/05 02:38:30;;;;;;;;;17.67;15.00;;;23.90;97171.95;;;;117077;1192;25406;-39
2022/04/05 02:41:01;;;;;;;;;14.33;13.33;;;23.91;97168.30;;;;117102;1193;25360;-42
2022/04/05 02:43:31;;;;;;;;;16.33;15.33;;;23.91;97167.38;;;;117072;1193;25355;-42
2022/04/05 02:46:00;;;;;;;;;17.33;14.67;;;23.91;97166.45;;;;117131;1192;25471;-44
2022/04/05 02:48:31;;;;;;;;;16.00;14.00;;;23.91;97169.64;;;;117099;1193;25668;-42
2022/04/05 02:51:02;;;;;;;;;16.67;12.33;;;23.91;97169.17;;;;117133;1192;25633;-39
2022/04/05 02:53:33;;;;;;;;;13.33;11.00;;;23.91;97170.50;;;;117080;1192;25229;-42
2022/04/05 02:56:04;;;;;;;;;14.33;12.33;;;23.90;97165.02;;;;117068;1193;25176;-41
2022/04/05 02:58:39;;;;;;;;;12.00;10.67;;;23.91;97164.20;;;;117119;1192;25202;-38
2022/04/05 03:01:10;;;;;;;;;18.00;13.00;;;23.92;97160.80;;;;117094;1192;25709;-41
2022/04/05 03:03:38;;;;;;;;;15.67;14.33;;;23.92;97161.94;;;;117104;1192;25032;-42
2022/04/05 03:06:07;;;;;;;;;15.33;12.00;;;23.91;97165.95;;;;117096;1192;25444;-44
2022/04/05 03:08:37;;;;;;;;;16.00;15.00;;;23.92;97160.80;;;;117039;1191;25318;-44
2022/04/05 03:11:08;;;;;;;;;16.00;15.33;;;23.91;97162.47;;;;116993;1191;25724;-40
2022/04/05 03:13:36;;;;;;;;;16.00;15.50;;;23.92;97161.50;;;;117020;1192;25811;-41
2022/04/05 03:16:07;;;;;;;;;13.33;12.33;;;23.92;97159.48;;;;117078;1192;25844;-41
2022/04/05 03:18:39;;;;;;;;;17.33;14.33;;;23.91;97160.16;;;;117015;1192;25262;-44
2022/04/05 03:21:09;;;;;;;;;19.00;17.33;;;23.91;97154.20;;;;117072;1192;25292;-43
2022/04/05 03:23:40;;;;;;;;;13.33;12.67;;;23.90;97151.61;;;;117072;1193;25021;-41
2022/04/05 03:26:10;;;;;;;;;17.00;13.67;;;23.89;97150.50;;;;117065;1193;24834;-43
2022/04/05 03:28:39;;;;;;;;;22.33;14.67;;;23.89;97150.71;;;;117077;1193;25601;-37
2022/04/05 03:31:06;;;;;;;;;13.67;10.33;;;23.88;97145.88;;;;117042;1192;26019;-38
2022/04/05 03:33:38;;;;;;;;;16.00;15.00;;;23.87;97147.20;;;;117010;1193;25120;-41
2022/04/05 03:36:06;;;;;;;;;14.67;12.00;;;23.87;97142.84;;;;117051;1193;25926;-37
2022/04/05 03:38:38;;;;;;;;;10.33;8.33;;;23.85;97143.51;;;;117077;1192;26079;-41
2022/04/05 03:41:09;;;;;;;;;18.00;13.00;;;23.87;97138.08;;;;117111;1193;24827;-39
2022/04/05 03:43:40;;;;;;;;;13.67;12.33;;;23.88;97144.43;;;;116960;1193;25677;-43
2022/04/05 03:46:08;;;;;;;;;15.00;11.00;;;23.87;97144.13;;;;117058;1192;25324;-41
2022/04/05 03:48:38;;;;;;;;;13.00;13.00;;;23.86;97146.26;;;;117086;1191;25487;-39
2022/04/05 03:51:11;;;;;;;;;18.00;13.33;;;23.87;97143.25;;;;117075;1193;25362;-38
2022/04/05 03:53:38;;;;;;;;;16.33;14.33;;;23.87;97142.58;;;;117080;1193;25700;-41
2022/04/05 03:56:11;;;;;;;;;11.50;10.50;;;23.86;97136.94;;;;116982;1194;25109;-41
2022/04/05 03:58:43;;;;;;;;;19.33;14.67;;;23.87;97137.08;;;;117054;1192;24796;-41
2022/04/05 04:01:14;;;;;;;;;14.50;14.00;;;23.87;97139.17;;;;117061;1192;24975;-41
2022/04/05 04:03:46;;;;;;;;;16.33;14.33;;;23.89;97135.67;;;;116970;1193;25043;-42
2022/04/05 04:06:15;;;;;;;;;15.00;14.00;;;23.89;97133.75;;;;117068;1193;25519;-39
2022/04/05 04:08:49;;;;;;;;;16.00;14.00;;;23.88;97129.69;;;;117106;1191;25501;-42
2022/04/05 04:11:17;;;;;;;;;13.67;12.00;;;23.88;97126.95;;;;117089;1192;25646;-47
2022/04/05 04:13:48;;;;;;;;;12.33;10.67;;;23.88;97123.33;;;;117072;1192;25591;-38
2022/04/05 04:16:17;;;;;;;;;12.33;11.33;;;23.87;97125.45;;;;117078;1191;25804;-40
2022/04/05 04:18:50;;;;;;;;;17.00;15.00;;;23.86;97126.64;;;;117066;1192;25966;-42
2022/04/05 04:21:21;;;;;;;;;16.50;13.50;;;23.87;97128.27;;;;117055;1193;25068;-40
2022/04/05 04:23:50;;;;;;;;;16.00;15.00;;;23.86;97123.99;;;;117090;1193;24952;-42
2022/04/05 04:26:19;;;;;;;;;14.00;12.00;;;23.86;97118.94;;;;117075;1193;25364;-40
2022/04/05 04:28:58;;;;;;;;;13.00;11.00;;;23.86;97118.73;;;;117084;1192;25527;-41
2022/04/05 04:31:31;;;;;;;;;17.00;14.00;;;23.89;97119.25;;;;117070;1193;25160;-42
2022/04/05 04:34:01;;;;;;;;;13.00;13.00;;;23.91;97114.58;;;;117096;1192;25023;-42
2022/04/05 04:36:33;;;;;;;;;18.50;15.50;;;23.89;97115.26;;;;117086;1193;24743;-40
2022/04/05 04:39:04;;;;;;;;;16.67;15.00;;;23.87;97112.97;;;;117051;1192;25662;-41
2022/04/05 04:41:34;;;;;;;;;14.00;11.00;;;23.86;97108.59;;;;117075;1192;24833;-38
2022/04/05 04:44:04;;;;;;;;;18.33;14.67;;;23.87;97112.05;;;;117102;1192;25655;-37
2022/04/05 04:46:33;;;;;;;;;13.00;13.00;;;23.87;97108.03;;;;117066;1193;25581;-37
2022/04/05 04:49:02;;;;;;;;;12.00;12.00;;;23.86;97102.11;;;;117124;1192;25292;-38
2022/04/05 04:51:32;;;;;;;;;14.33;14.33;;;23.86;97098.88;;;;117125;1193;25582;-38
2022/04/05 04:54:01;;;;;;;;;13.33;11.33;;;23.86;97094.98;;;;117099;1193;25202;-38
2022/04/05 04:56:33;;;;;;;;;16.00;14.67;;;23.86;97096.13;;;;117027;1193;24989;-40
2022/04/05 04:59:02;;;;;;;;;13.67;12.00;;;23.86;97097.16;;;;117078;1192;25810;-42
2022/04/05 05:01:33;;;;;;;;;16.00;13.33;;;23.85;97094.23;;;;117076;1192;25998;-36
2022/04/05 05:04:01;;;;;;;;;17.00;13.50;;;23.85;97096.92;;;;117109;1192;25335;-39
2022/04/05 05:06:31;;;;;;;;;15.00;12.33;;;23.85;97094.08;;;;117124;1192;25700;-42
2022/04/05 05:09:02;;;;;;;;;13.00;13.00;;;23.86;97093.55;;;;117057;1192;25109;-40
2022/04/05 05:11:33;;;;;;;;;14.00;11.50;;;23.86;97094.18;;;;117121;1192;24868;-41
2022/04/05 05:14:03;;;;;;;;;14.67;13.33;;;23.88;97092.07;;;;117101;1193;25651;-43
2022/04/05 05:16:35;;;;;;;;;15.33;13.67;;;23.90;97092.60;;;;117072;1193;25507;-40
2022/04/05 05:19:06;;;;;;;;;11.50;10.50;;;23.91;97090.79;;;;117121;1193;24842;-38
2022/04/05 05:21:35;;;;;;;;;13.67;12.33;;;23.91;97095.48;;;;117091;1192;25057;-38
2022/04/05 05:24:10;;;;;;;;;14.33;13.67;;;23.92;97093.62;;;;117099;1193;25388;-44
2022/04/05 05:26:43;;;;;;;;;13.00;9.50;;;23.93;97098.14;;;;117046;1192;25746;-40
2022/04/05 05:29:14;;;;;;;;;13.67;11.00;;;23.93;97098.95;;;;117091;1193;25364;-42
2022/04/05 05:31:44;;;;;;;;;14.50;12.00;;;23.93;97098.90;;;;117113;1192;25229;-39
2022/04/05 05:34:22;;;;;;;;;13.33;11.33;;;23.93;97092.72;;;;117104;1191;25663;-40
2022/04/05 05:36:54;;;;;;;;;13.50;11.50;;;23.95;97092.89;;;;117093;1193;25090;-42
2022/04/05 05:39:25;;;;;;;;;16.33;15.00;;;23.97;97089.03;;;;117100;1192;25228;-40
2022/04/05 05:41:55;;;;;;;;;11.00;11.00;;;23.95;97086.11;;;;117041;1193;24824;-41
2022/04/05 05:44:26;;;;;;;;;10.67;10.67;;;23.92;97088.98;;;;117095;1191;25072;-39
2022/04/05 05:46:58;;;;;;;;;14.75;13.75;;;23.93;97085.83;;;;117122;1193;25283;-45
2022/04/05 05:49:27;;;;;;;;;19.00;13.50;;;23.95;97087.13;;;;117085;1193;25962;-39
2022/04/05 05:51:57;;;;;;;;;15.00;11.00;;;23.95;97088.84;;;;117078;1193;24799;-41
2022/04/05 05:54:28;;;;;;;;;13.50;12.00;;;23.95;97085.92;;;;117099;1192;26007;-40
2022/04/05 05:56:56;;;;;;;;;14.00;13.00;;;23.96;97087.61;;;;117066;1193;25588;-40
2022/04/05 05:59:28;;;;;;;;;17.00;15.00;;;23.94;97086.86;;;;117063;1192;25801;-45
2022/04/05 06:01:59;;;;;;;;;11.50;11.50;;;23.96;97088.06;;;;117090;1191;25367;-41
2022/04/05 06:04:30;;;;;;;;;15.00;14.00;;;23.98;97084.12;;;;117074;1192;24978;-39
2022/04/05 06:07:00;;;;;;;;;15.33;12.67;;;23.98;97083.55;;;;117111;1193;25535;-48
2022/04/05 06:09:30;;;;;;;;;12.33;11.33;;;23.99;97078.94;;;;117101;1192;25059;-44
2022/04/05 06:11:58;;;;;;;;;12.00;12.00;;;23.99;97078.45;;;;117073;1193;25149;-41
2022/04/05 06:14:29;;;;;;;;;11.00;11.00;;;23.98;97076.40;;;;117029;1192;24782;-44
2022/04/05 06:16:57;;;;;;;;;16.00;12.50;;;23.99;97074.04;;;;117045;1192;25443;-41
2022/04/05 06:19:27;;;;;;;;;14.33;13.00;;;23.99;97080.75;;;;117029;1191;25258;-43
2022/04/05 06:21:57;;;;;;;;;16.33;15.33;;;23.99;97081.63;;;;117102;1193;24737;-42
2022/04/05 06:24:26;;;;;;;;;13.00;13.00;;;24.00;97080.95;;;;117069;1193;24874;-38
2022/04/05 06:26:57;;;;;;;;;15.67;13.33;;;24.00;97074.63;;;;117082;1192;25255;-45
2022/04/05 06:29:25;;;;;;;;;16.33;14.00;;;24.00;97070.40;;;;117096;1192;25433;-42
2022/04/05 06:31:53;;;;;;;;;13.75;12.75;;;24.01;97063.01;;;;117025;1192;25159;-41
2022/04/05 06:34:25;;;;;;;;;13.00;11.00;;;24.00;97059.64;;;;117084;1192;26427;-42
2022/04/05 06:36:58;;;;;;;;;14.67;13.00;;;24.02;97057.82;;;;117066;1193;25314;-40
2022/04/05 06:39:29;;;;;;;;;14.50;12.00;;;24.04;97060.05;;;;117083;1193;25390;-43
2022/04/05 06:42:02;;;;;;;;;14.00;14.00;;;24.07;97055.46;;;;117098;1193;25648;-44
2022/04/05 06:44:32;;;;;;;;;11.33;8.00;;;24.07;97055.69;;;;117056;1193;25320;-42
2022/04/05 06:47:06;;;;;;;;;12.67;11.33;;;24.07;97051.55;;;;117049;1193;25542;-44
2022/04/05 06:49:35;;;;;;;;;16.50;12.00;;;24.09;97048.05;;;;117075;1193;25451;-41
2022/04/05 06:52:04;;;;;;;;;14.33;13.33;;;24.08;97045.23;;;;117045;1193;25909;-42
2022/04/05 06:54:36;;;;;;;;;16.50;14.00;;;24.08;97043.48;;;;117046;1194;25808;-38
2022/04/05 06:57:05;;;;;;;;;13.33;11.67;;;24.08;97037.73;;;;117074;1192;25252;-41
2022/04/05 06:59:37;;;;;;;;;14.00;12.00;;;24.08;97034.70;;;;117090;1192;25449;-43
2022/04/05 07:02:04;;;;;;;;;16.00;15.00;;;24.08;97032.40;;;;117112;1193;24775;-42
2022/04/05 07:04:36;;;;;;;;;17.00;14.67;;;24.08;97031.36;;;;116957;1193;25611;-42
2022/04/05 07:07:05;;;;;;;;;16.67;14.33;;;24.09;97030.48;;;;117066;1192;26164;-43
2022/04/05 07:09:35;;;;;;;;;15.00;12.67;;;24.09;97027.92;;;;117051;1193;25645;-44
2022/04/05 07:12:03;;;;;;;;;14.67;12.33;;;24.09;97024.63;;;;117098;1192;24794;-37
2022/04/05 07:14:34;;;;;;;;;16.75;13.00;;;24.10;97021.21;;;;117034;1193;25070;-42
2022/04/05 07:17:04;;;;;;;;;15.50;13.00;;;24.11;97022.84;;;;117100;1192;25776;-43
2022/04/05 07:19:35;;;;;;;;;15.00;13.67;;;24.12;97023.72;;;;117135;1192;24981;-39
2022/04/05 07:22:04;;;;;;;;;14.67;14.00;;;24.13;97023.08;;;;117056;1192;25330;-40
2022/04/05 07:24:32;;;;;;;;;13.00;12.33;;;24.12;97019.81;;;;117072;1193;25137;-40
2022/04/05 07:27:03;;;;;;;;;19.67;15.33;;;24.11;97016.63;;;;117074;1193;25255;-41
2022/04/05 07:29:33;;;;;;;;;13.00;11.50;;;24.11;97013.30;;;;117108;1192;25667;-42
2022/04/05 07:32:01;;;;;;;;;15.00;11.00;;;24.12;97012.61;;;;117092;1192;24775;-39
2022/04/05 07:34:33;;;;;;;;;11.00;10.50;;;24.11;97006.73;;;;117094;1193;25210;-41
2022/04/05 07:37:02;;;;;;;;;12.33;11.67;;;24.12;97003.71;;;;117045;1193;25153;-41
2022/04/05 07:39:37;;;;;;;;;15.33;14.33;;;24.13;97000.48;;;;117113;1193;25759;-42
2022/04/05 07:42:07;;;;;;;;;13.00;13.00;;;24.15;97001.82;;;;117068;1192;25447;-41
2022/04/05 07:44:35;;;;;;;;;14.67;12.33;;;24.15;96992.97;;;;117104;1191;25432;-38
2022/04/05 07:47:05;;;;;;;;;16.50;14.00;;;24.15;96990.77;;;;117068;1192;25096;-41
2022/04/05 07:49:37;;;;;;;;;15.67;13.67;;;24.15;96990.23;;;;117116;1191;24901;-39
2022/04/05 07:52:06;;;;;;;;;13.67;13.00;;;24.18;96990.73;;;;117066;1193;24840;-42
2022/04/05 07:54:40;;;;;;;;;13.67;13.67;;;24.18;96989.44;;;;117075;1193;25234;-40
2022/04/05 07:57:13;;;;;;;;;15.00;12.67;;;24.17;96987.36;;;;117022;1193;24903;-40
2022/04/05 07:59:42;;;;;;;;;16.33;14.67;;;24.19;96993.38;;;;117018;1193;25209;-44
2022/04/05 08:02:11;;;;;;;;;12.67;12.67;;;24.19;96993.27;;;;117035;1193;25496;-47
2022/04/05 08:05:00;;;;;;;;;15.00;15.00;;;24.26;96985.52;;;;116952;1192;25384;-39
2022/04/05 08:07:32;;;;;;;;;14.00;13.33;;;24.29;96986.61;;;;117056;1193;25172;-42
2022/04/05 08:10:01;;;;;;;;;15.33;14.67;;;24.27;96989.61;;;;117062;1193;25048;-40
2022/04/05 08:12:55;;;;;;;;;14.33;13.00;;;24.23;96982.48;;;;117069;1192;25787;-42
2022/04/05 08:15:25;;;;;;;;;13.67;12.33;;;24.33;96980.98;;;;117078;1193;25675;-44
2022/04/05 08:17:57;;;;;;;;;11.00;11.00;;;24.33;96981.27;;;;117112;1193;24781;-42
2022/04/05 08:20:27;;;;;;;;;19.33;14.00;;;24.29;96979.66;;;;117097;1193;25220;-45
2022/04/05 08:22:59;;;;;;;;;14.67;13.00;;;24.26;96974.14;;;;117035;1193;25514;-40
2022/04/05 08:25:29;;;;;;;;;14.00;13.00;;;24.26;96975.11;;;;117109;1193;24765;-40
2022/04/05 08:28:01;;;;;;;;;15.00;14.00;;;24.26;96976.13;;;;117107;1193;25851;-42
2022/04/05 08:30:30;;;;;;;;;15.50;12.50;;;24.26;96975.47;;;;117065;1193;25419;-39
2022/04/05 08:32:58;;;;;;;;;12.33;11.00;;;24.25;96973.77;;;;117073;1192;25877;-40
2022/04/05 08:35:26;;;;;;;;;16.33;15.67;;;24.24;96971.72;;;;117116;1193;24826;-44
2022/04/05 08:37:57;;;;;;;;;16.00;14.67;;;24.25;96971.06;;;;117059;1193;25326;-42
2022/04/05 08:40:29;;;;;;;;;15.50;14.00;;;24.25;96962.17;;;;117072;1193;25037;-42
2022/04/05 08:42:59;;;;;;;;;18.00;12.67;;;24.24;96958.48;;;;117053;1193;25202;-40
2022/04/05 08:45:29;;;;;;;;;14.50;13.00;;;24.26;96960.90;;;;117091;1193;25464;-43
2022/04/05 08:48:02;;;;;;;;;16.33;14.33;;;24.26;96961.42;;;;117077;1193;25614;-43
2022/04/05 08:50:34;;;;;;;;;14.50;14.00;;;24.26;96963.54;;;;117044;1191;25512;-38
2022/04/05 08:53:03;;;;;;;;;14.67;13.00;;;24.28;96962.27;;;;117066;1193;25628;-39
2022/04/05 08:55:40;;;;;;;;;14.00;14.00;;;24.29;96962.34;;;;117101;1192;24859;-44
2022/04/05 08:58:08;;;;;;;;;13.00;11.00;;;24.31;96962.77;;;;117082;1193;26580;-41
2022/04/05 09:00:36;;;;;;;;;14.67;13.67;;;24.29;96955.23;;;;117073;1193;25229;-42
2022/04/05 09:03:07;;;;;;;;;15.00;13.00;;;24.29;96953.61;;;;117075;1192;25079;-37
2022/04/05 09:05:43;;;;;;;;;11.00;10.33;;;24.31;96952.16;;;;117070;1193;25044;-43
2022/04/05 09:08:29;;;;;;;;;13.50;12.00;;;24.31;96946.86;;;;117067;1191;25665;-38
2022/04/05 09:11:06;;;;;;;;;16.00;15.00;;;24.34;96942.46;;;;117043;1193;26346;-38
2022/04/05 09:13:36;;;;;;;;;13.00;13.00;;;24.35;96937.65;;;;117059;1193;25361;-37
2022/04/05 09:16:08;;;;;;;;;14.00;12.33;;;24.35;96935.24;;;;117083;1193;24932;-41
2022/04/05 09:18:40;;;;;;;;;15.67;13.67;;;24.35;96931.05;;;;117088;1193;25600;-44
2022/04/05 09:21:13;;;;;;;;;12.33;11.00;;;24.37;96927.81;;;;117080;1193;25119;-40
2022/04/05 09:23:43;;;;;;;;;17.67;14.67;;;24.40;96924.44;;;;117094;1193;25083;-41
2022/04/05 09:26:17;;;;;;;;;12.00;12.00;;;24.40;96924.86;;;;117035;1193;26573;-42
2022/04/05 09:28:52;;;;;;;;;17.33;17.33;;;24.40;96924.47;;;;117080;1191;25611;-44
2022/04/05 09:31:24;;;;;;;;;15.00;11.67;;;24.43;96922.23;;;;117061;1192;26182;-38
2022/04/05 09:34:21;;;;;;;;;13.00;13.00;;;24.44;96922.88;;;;117092;1193;24769;-39
2022/04/05 09:36:52;;;;;;;;;13.67;12.00;;;24.51;96924.54;;;;117059;1193;24943;-40
2022/04/05 09:39:32;;;;;;;;;13.67;13.33;;;24.50;96918.73;;;;117078;1191;25594;-40
2022/04/05 09:42:11;;;;;;;;;9.50;9.50;;;24.50;96923.88;;;;117057;1193;25281;-42
2022/04/05 09:44:44;;;;;;;;;15.00;15.00;;;24.52;96912.80;;;;117070;1191;25809;-42
2022/04/05 09:47:17;;;;;;;;;11.50;11.50;;;24.51;96908.41;;;;117056;1192;25087;-43
2022/04/05 09:49:51;;;;;;;;;14.00;14.00;;;24.49;96908.61;;;;117070;1192;24985;-38
2022/04/05 09:52:32;;;;;;;;;14.00;14.00;;;24.49;96903.90;;;;117167;1192;25562;-41
2022/04/05 09:55:16;;;;;;;;;15.00;13.00;;;24.51;96903.11;;;;117101;1193;25469;-41
2022/04/05 09:57:48;;;;;;;;;11.00;9.33;;;24.51;96905.11;;;;117081;1193;24905;-40
2022/04/05 10:00:18;;;;;;;;;13.67;13.33;;;24.49;96898.42;;;;117078;1193;25202;-39
2022/04/05 10:03:08;;;;;;;;;12.00;11.00;;;24.47;96895.66;;;;117073;1193;25624;-41
2022/04/05 10:05:36;;;;;;;;;14.00;12.00;;;24.50;96895.01;;;;117082;1193;25743;-44
2022/04/05 10:08:07;;;;;;;;;13.33;12.67;;;24.50;96891.82;;;;117080;1191;24826;-43
2022/04/05 10:10:37;;;;;;;;;11.00;11.00;;;24.49;96898.65;;;;117059;1193;26243;-40
2022/04/05 10:13:07;;;;;;;;;11.67;9.67;;;24.48;96897.24;;;;117078;1192;25586;-44
2022/04/05 10:15:35;;;;;;;;;14.00;12.00;;;24.48;96892.15;;;;117083;1193;24845;-42
2022/04/05 10:18:06;;;;;;;;;17.00;14.00;;;24.48;96888.31;;;;117076;1193;26319;-37
2022/04/05 10:20:38;;;;;;;;;12.50;10.00;;;24.49;96882.79;;;;116978;1192;24905;-40
2022/04/05 10:23:07;;;;;;;;;10.50;10.50;;;24.49;96873.84;;;;117023;1193;25657;-41
2022/04/05 10:25:41;;;;;;;;;15.25;13.75;;;24.51;96872.71;;;;117032;1193;24924;-39
2022/04/05 10:28:09;;;;;;;;;11.50;10.75;;;24.53;96874.23;;;;116972;1193;25090;-36
2022/04/05 10:30:48;;;;;;;;;14.00;10.00;;;24.54;96872.95;;;;117080;1193;24903;-37
2022/04/05 10:33:33;;;;;;;;;12.00;9.67;;;24.56;96869.47;;;;117074;1193;25062;-41
2022/04/05 10:36:02;;;;;;;;;13.00;11.00;;;24.60;96872.22;;;;117062;1192;25537;-40
2022/04/05 10:38:35;;;;;;;;;12.25;11.75;;;24.60;96872.53;;;;117063;1193;24769;-39
2022/04/05 10:41:19;;;;;;;;;12.67;10.33;;;24.59;96873.31;;;;117117;1192;25555;-43
2022/04/05 10:44:18;;;;;;;;;12.33;12.33;;;24.61;96867.89;;;;117098;1192;26132;-40
2022/04/05 10:47:00;;;;;;;;;11.00;11.00;;;24.70;96863.42;;;;117107;1193;26852;-39
2022/04/05 10:49:54;;;;;;;;;14.25;11.25;;;24.78;96868.77;;;;117069;1192;24854;-42
2022/04/05 10:52:34;;;;;;;;;12.33;11.67;;;24.75;96858.98;;;;116991;1193;26447;-42
2022/04/05 10:55:09;;;;;;;;;8.33;7.00;;;24.71;96863.09;;;;117031;1191;25689;-41
2022/04/05 10:57:39;;;;;;;;;10.67;10.00;;;24.68;96864.23;;;;117134;1192;25606;-44
2022/04/05 11:00:10;;;;;;;;;10.50;10.50;;;24.67;96858.08;;;;117124;1193;25299;-43
2022/04/05 11:02:44;;;;;;;;;10.33;9.67;;;24.66;96856.17;;;;117106;1192;25019;-38
2022/04/05 11:05:18;;;;;;;;;7.33;7.33;;;24.66;96845.28;;;;117104;1193;26261;-38
2022/04/05 11:07:53;;;;;;;;;10.67;9.33;;;24.66;96835.48;;;;117097;1193;25049;-40
2022/04/05 11:10:39;;;;;;;;;12.33;10.00;;;24.66;96839.27;;;;117093;1193;25583;-39
2022/04/05 11:13:23;;;;;;;;;12.75;11.00;;;24.70;96835.86;;;;117027;1192;25022;-38
2022/04/05 11:16:01;;;;;;;;;8.67;8.67;;;24.74;96833.46;;;;116962;1192;24874;-44
2022/04/05 11:18:34;;;;;;;;;8.50;8.50;;;24.76;96833.20;;;;117024;1193;25439;-42
2022/04/05 11:21:06;;;;;;;;;13.25;12.25;;;24.76;96833.64;;;;117019;1192;25652;-38
2022/04/05 11:23:53;;;;;;;;;11.33;9.00;;;24.74;96832.77;;;;117098;1193;25262;-41
2022/04/05 11:26:32;;;;;;;;;10.00;10.00;;;24.79;96827.63;;;;117091;1193;25526;-39
2022/04/05 11:29:21;;;;;;;;;11.00;9.33;;;24.78;96829.28;;;;117106;1193;25834;-46
2022/04/05 11:32:11;;;;;;;;;8.00;8.00;;;24.80;96825.08;;;;116978;1193;25494;-34
2022/04/05 11:34:46;;;;;;;;;8.33;8.33;;;24.79;96821.95;;;;117052;1193;25421;-40
2022/04/05 11:37:35;;;;;;;;;11.67;10.67;;;24.76;96819.30;;;;117044;1193;25037;-42
2022/04/05 11:40:07;;;;;;;;;13.00;11.50;;;24.80;96817.85;;;;116979;1192;25018;-40
2022/04/05 11:42:37;;;;;;;;;8.33;7.33;;;24.79;96820.64;;;;117070;1191;24897;-40
2022/04/05 11:45:07;;;;;;;;;10.50;10.00;;;24.75;96825.14;;;;116995;1193;25099;-38
2022/04/05 11:47:36;;;;;;;;;13.00;12.67;;;24.73;96822.51;;;;117026;1193;25699;-42
2022/04/05 11:50:15;;;;;;;;;12.25;10.00;;;24.71;96817.70;;;;117037;1193;25213;-39
2022/04/05 11:52:47;;;;;;;;;8.00;8.00;;;24.70;96812.69;;;;117028;1193;25585;-40
2022/04/05 11:58:26;;;;;;;;;7.50;7.50;;;24.72;96806.00;;;;117049;1191;25588;-41
2022/04/05 12:00:58;;;;;;;;;9.33;9.00;;;24.74;96805.68;;;;117075;1193;24747;-39
2022/04/05 12:03:26;;;;;;;;;10.00;7.00;;;24.75;96799.16;;;;117105;1193;24990;-42
2022/04/05 12:05:57;;;;;;;;;6.50;6.50;;;24.75;96800.14;;;;117119;1192;24852;-41
2022/04/05 12:08:28;;;;;;;;;11.00;10.00;;;24.75;96800.34;;;;117087;1194;25207;-39
2022/04/05 12:10:58;;;;;;;;;10.67;8.00;;;24.74;96796.63;;;;117130;1193;25326;-42
2022/04/05 12:13:30;;;;;;;;;9.00;9.00;;;24.73;96800.58;;;;117097;1192;25070;-40
2022/04/05 12:16:02;;;;;;;;;11.00;9.00;;;24.72;96795.77;;;;117095;1193;25231;-42
2022/04/05 12:18:33;;;;;;;;;9.33;8.00;;;24.71;96788.92;;;;117087;1192;25456;-40